Weather at Miami International Airport

Public forecast

Using degrees Fahrenheit for public forecast. Weather courtesy of forecast.io.

Current aviation weather report (METAR) for Miami International Airport

Retrieved 2020/10/19 14:53 UTC (49 minutes ago):

KMIA 191453Z 08012KT 10SM FEW016 SCT045 BKN080 26/23 A3000 RMK AO2 RAE09 SLP157 P0001 60006 T02610228 51016

Aviation forecast (TAF) for Miami International Airport

Retrieved 2020/10/19 12:22 UTC (3 hours ago):

TAF KMIA 191120Z 1912/2018 07012G22KT P6SM VCSH SCT025 BKN060 TEMPO 1912/1916 4SM SHRA BKN025 FM191700 06015G25KT P6SM VCTS SCT020CB BKN040 FM192200 07013G23KT P6SM SCT035 SCT050 BKN100 FM200900 10011KT P6SM FEW040 SCT060 BKN120